Time;durP1;ratioP1;P1;durP2;ratioP2;P2;SDS_P1;SDS_P2;PMS_P1;PMS_P2;Temp;Humidity;BMP_temperature;BMP_pressure;BME280_temperature;BME280_humidity;BME280_pressure;Samples;Min_cycle;Max_cycle;Signal;HPM_P1;HPM_P2
2023/06/04 00:00:08;;;;;;;1.55;1.20;;;;;;;-146.27;62.66;82412.31;5030237;28;20021;-70
2023/06/04 00:02:33;;;;;;;2.17;1.00;;;;;;;-146.27;62.65;82408.28;5031123;28;20052;-71
2023/06/04 00:04:58;;;;;;;6.55;1.33;;;;;;;-146.27;63.30;82380.16;5029771;28;20473;-70
2023/06/04 00:07:24;;;;;;;2.80;1.30;;;;;;;-146.27;63.36;82416.31;5030193;28;20457;-70
2023/06/04 00:09:49;;;;;;;3.03;1.02;;;;;;;-146.27;63.79;82468.56;5023826;28;20076;-71
2023/06/04 00:12:14;;;;;;;2.85;1.17;;;;;;;-146.27;64.50;82472.56;5027260;28;20056;-70
2023/06/04 00:14:40;;;;;;;5.07;1.67;;;;;;;-146.27;65.12;82512.75;5031402;28;20641;-69
2023/06/04 00:17:06;;;;;;;2.35;1.40;;;;;;;-146.27;64.27;82484.63;5028322;28;20037;-70
2023/06/04 00:19:33;;;;;;;3.35;1.13;;;;;;;-146.27;64.48;82496.69;5030717;28;20017;-70
2023/06/04 00:21:59;;;;;;;2.90;1.23;;;;;;;-146.27;65.37;82476.59;5030690;28;20546;-70
2023/06/04 00:24:24;;;;;;;4.10;1.40;;;;;;;-146.27;64.40;82496.69;5016154;28;20112;-70
2023/06/04 00:26:49;;;;;;;5.15;1.80;;;;;;;-146.27;64.96;82528.81;5029240;28;20032;-71
2023/06/04 00:29:15;;;;;;;4.55;1.50;;;;;;;-146.27;64.03;82500.69;5030745;28;20030;-70
2023/06/04 00:31:40;;;;;;;3.22;1.75;;;;;;;-146.27;64.62;82500.69;5030262;28;20032;-70
2023/06/04 00:34:05;;;;;;;5.13;1.50;;;;;;;-146.27;64.15;82480.59;5027041;28;20443;-70
2023/06/04 00:36:31;;;;;;;2.15;1.40;;;;;;;-146.27;63.11;82512.75;5030780;28;20028;-70
2023/06/04 00:38:56;;;;;;;1.98;1.40;;;;;;;-146.27;63.83;82532.84;5028798;28;20543;-71
2023/06/04 00:41:22;;;;;;;6.00;1.60;;;;;;;-146.27;64.60;82556.94;5029079;28;20040;-70
2023/06/04 00:43:55;;;;;;;3.17;1.65;;;;;;;-146.27;65.31;82560.97;5029005;28;20488;-70
2023/06/04 00:46:25;;;;;;;3.67;1.30;;;;;;;-146.27;65.17;82542.88;5029674;28;20064;-71
2023/06/04 00:48:51;;;;;;;5.20;1.50;;;;;;;-146.27;64.46;82548.91;5021362;28;20022;-70
2023/06/04 00:51:16;;;;;;;3.97;1.90;;;;;;;-146.27;64.96;82520.78;5026927;28;20094;-71
2023/06/04 00:53:42;;;;;;;4.75;2.10;;;;;;;-146.27;64.65;82530.84;5031396;28;20108;-70
2023/06/04 00:56:07;;;;;;;2.72;1.70;;;;;;;-146.27;63.39;82542.88;5030269;28;20028;-71
2023/06/04 00:58:38;;;;;;;3.67;1.63;;;;;;;-146.27;63.68;82587.09;5030891;28;20512;-70
2023/06/04 01:01:07;;;;;;;2.17;1.55;;;;;;;-146.27;63.03;82597.13;5030927;28;20033;-71
2023/06/04 01:03:37;;;;;;;3.55;1.20;;;;;;;-146.27;63.82;82589.09;5029788;28;20053;-70
2023/06/04 01:06:09;;;;;;;4.25;2.63;;;;;;;-146.27;63.69;82603.16;5026177;28;20032;-70
2023/06/04 01:08:35;;;;;;;2.63;1.40;;;;;;;-146.27;64.26;82542.88;5029802;28;20034;-70
2023/06/04 01:11:00;;;;;;;3.53;1.50;;;;;;;-146.27;63.71;82621.22;5030344;28;20171;-70
2023/06/04 01:13:25;;;;;;;1.85;1.40;;;;;;;-146.27;63.03;82617.22;5029875;28;20025;-71
2023/06/04 01:15:51;;;;;;;5.53;1.92;;;;;;;-146.27;63.85;82631.28;5033612;28;20112;-71
2023/06/04 01:18:29;;;;;;;3.72;1.58;;;;;;;-146.27;63.63;82617.22;5027845;28;20051;-71
2023/06/04 01:21:08;;;;;;;4.35;1.95;;;;;;;-146.27;63.48;82675.47;5018663;28;20466;-71
2023/06/04 01:23:46;;;;;;;2.03;1.38;;;;;;;-146.27;63.33;82627.25;5028393;28;20033;-70
2023/06/04 01:26:12;;;;;;;3.58;1.50;;;;;;;-146.27;63.55;82653.38;5029714;28;20095;-70
2023/06/04 01:28:37;;;;;;;3.35;1.60;;;;;;;-146.27;63.18;82661.41;5011045;28;20030;-70
2023/06/04 01:31:07;;;;;;;4.70;1.77;;;;;;;-146.27;63.55;82661.41;5023979;28;20033;-69
2023/06/04 01:33:33;;;;;;;3.28;1.13;;;;;;;-146.27;63.09;82677.47;5029914;28;20025;-69
2023/06/04 01:35:58;;;;;;;6.00;1.40;;;;;;;-146.27;62.27;82649.34;5022564;28;20033;-71
2023/06/04 01:38:24;;;;;;;5.30;1.52;;;;;;;-146.27;63.42;82665.44;5030114;28;20057;-70
2023/06/04 01:40:50;;;;;;;3.03;1.70;;;;;;;-146.27;62.27;82683.50;5029972;28;20017;-70
2023/06/04 01:43:16;;;;;;;3.33;1.30;;;;;;;-146.27;62.71;82667.44;5027588;28;20056;-71
2023/06/04 01:45:41;;;;;;;2.22;1.58;;;;;;;-146.27;63.87;82643.31;5026791;28;20104;-70
2023/06/04 01:48:07;;;;;;;7.88;1.75;;;;;;;-146.27;63.33;82673.47;5025389;28;20037;-70
2023/06/04 01:50:33;;;;;;;1.50;1.30;;;;;;;-146.27;63.64;82715.66;5029741;28;20028;-71
2023/06/04 01:52:59;;;;;;;3.30;1.50;;;;;;;-146.27;62.63;82727.72;5031177;28;20029;-71
2023/06/04 01:55:29;;;;;;;2.50;1.58;;;;;;;-146.27;62.37;82721.69;5025285;28;20355;-70
2023/06/04 01:57:55;;;;;;;2.33;1.30;;;;;;;-146.27;62.57;82687.53;5033397;28;20032;-71
2023/06/04 02:00:20;;;;;;;2.58;1.60;;;;;;;-146.27;62.80;82731.72;5027127;28;20018;-71
2023/06/04 02:02:47;;;;;;;6.72;1.20;;;;;;;-146.27;62.15;82735.75;5026739;28;20029;-70
2023/06/04 02:05:13;;;;;;;6.80;1.27;;;;;;;-146.27;64.00;82751.81;5024269;28;20476;-70
2023/06/04 02:07:40;;;;;;;2.22;1.13;;;;;;;-146.27;62.84;82769.91;5032242;28;20021;-71
2023/06/04 02:10:10;;;;;;;4.95;1.33;;;;;;;-146.27;63.38;82781.94;5025898;28;20053;-71
2023/06/04 02:12:37;;;;;;;4.25;1.48;;;;;;;-146.27;62.94;82792.00;5028957;28;20063;-70
2023/06/04 02:15:04;;;;;;;5.05;1.70;;;;;;;-146.27;64.06;82777.94;5027377;28;20105;-71
2023/06/04 02:17:32;;;;;;;5.32;1.25;;;;;;;-146.27;63.57;82777.94;5030662;28;20112;-71
2023/06/04 02:19:58;;;;;;;3.13;1.40;;;;;;;-146.27;63.93;82783.97;5031948;28;20099;-71
2023/06/04 02:22:25;;;;;;;2.08;1.10;;;;;;;-146.27;62.51;82812.09;5032312;28;20468;-71
2023/06/04 02:24:51;;;;;;;3.47;1.30;;;;;;;-146.27;62.88;82806.06;5031123;28;20064;-70
2023/06/04 02:27:16;;;;;;;2.22;1.23;;;;;;;-146.27;62.40;82785.97;5028820;28;20061;-70
2023/06/04 02:29:43;;;;;;;1.50;1.15;;;;;;;-146.27;63.54;82830.16;5032216;28;20033;-70
2023/06/04 02:32:09;;;;;;;3.63;1.27;;;;;;;-146.27;63.50;82834.19;5009343;28;20064;-71
2023/06/04 02:34:34;;;;;;;2.55;1.02;;;;;;;-146.27;63.86;82812.09;5031848;28;20427;-70
2023/06/04 02:37:00;;;;;;;2.22;1.25;;;;;;;-146.27;61.11;82834.19;5030786;28;20025;-71
2023/06/04 02:39:26;;;;;;;2.95;1.40;;;;;;;-146.27;61.65;82818.13;5025568;28;20021;-70
2023/06/04 02:41:51;;;;;;;3.83;1.17;;;;;;;-146.27;60.34;82818.13;5032573;28;20033;-71
2023/06/04 02:44:17;;;;;;;1.27;1.10;;;;;;;-146.27;59.66;82874.38;5032627;28;20025;-70
2023/06/04 02:46:43;;;;;;;4.90;1.15;;;;;;;-146.27;61.90;82818.13;5031172;28;20037;-70
2023/06/04 02:49:09;;;;;;;5.80;1.08;;;;;;;-146.27;60.34;82806.06;5032491;28;20204;-70
2023/06/04 02:51:34;;;;;;;1.77;1.13;;;;;;;-146.27;61.03;82832.19;5032744;28;20485;-70
2023/06/04 02:54:00;;;;;;;5.38;1.35;;;;;;;-146.27;60.29;82822.13;5032528;28;20029;-70
2023/06/04 02:56:25;;;;;;;1.52;1.13;;;;;;;-146.27;61.99;82828.16;5032615;28;20048;-71
2023/06/04 02:58:53;;;;;;;5.47;1.13;;;;;;;-146.27;59.52;82820.13;5032481;28;20104;-69
2023/06/04 03:01:22;;;;;;;4.18;1.20;;;;;;;-146.27;59.92;82834.19;5032094;28;20057;-69
2023/06/04 03:03:47;;;;;;;4.35;1.08;;;;;;;-146.27;60.85;82882.41;5029522;28;20033;-71
2023/06/04 03:06:14;;;;;;;5.15;1.10;;;;;;;-146.27;61.04;82850.25;5029674;28;20036;-71
2023/06/04 03:08:40;;;;;;;4.22;1.20;;;;;;;-146.27;63.06;82874.38;5018729;28;20072;-71
2023/06/04 03:11:06;;;;;;;1.60;1.25;;;;;;;-146.27;60.71;82856.28;5030932;28;20044;-71
2023/06/04 03:13:32;;;;;;;2.25;0.80;;;;;;;-146.27;61.18;82892.44;5031064;28;20489;-71
2023/06/04 03:16:00;;;;;;;4.82;1.27;;;;;;;-146.27;60.14;82888.44;5023689;28;20053;-70
2023/06/04 03:18:26;;;;;;;1.65;1.10;;;;;;;-146.27;60.93;82918.56;5029334;28;20116;-71
2023/06/04 03:20:52;;;;;;;1.88;1.10;;;;;;;-146.27;62.19;82878.38;5030706;28;20109;-71
2023/06/04 03:23:18;;;;;;;4.15;1.13;;;;;;;-146.27;60.62;82862.31;5028687;28;20477;-71
2023/06/04 03:25:43;;;;;;;6.18;1.20;;;;;;;-146.27;62.18;82902.50;5023408;28;20060;-70
2023/06/04 03:28:09;;;;;;;3.33;1.15;;;;;;;-146.27;59.84;82822.13;5021501;28;20025;-71
2023/06/04 03:30:34;;;;;;;2.47;1.10;;;;;;;-146.27;61.54;82860.31;5031446;28;20049;-71
2023/06/04 03:33:00;;;;;;;3.28;1.30;;;;;;;-146.27;60.21;82888.44;5032082;28;20064;-71
2023/06/04 03:35:25;;;;;;;4.10;1.48;;;;;;;-146.27;59.76;82918.56;5030734;28;20112;-70
2023/06/04 03:37:50;;;;;;;4.63;1.00;;;;;;;-146.27;59.91;82962.75;5032394;28;20421;-71
2023/06/04 03:40:16;;;;;;;3.75;1.05;;;;;;;-146.27;60.70;82874.38;5031984;28;20374;-70
2023/06/04 03:42:42;;;;;;;3.65;1.30;;;;;;;-146.27;59.67;82900.47;5031103;28;20033;-70
2023/06/04 03:45:08;;;;;;;3.97;1.10;;;;;;;-146.27;61.05;82942.66;5032083;28;20049;-71
2023/06/04 03:47:33;;;;;;;1.60;1.00;;;;;;;-146.27;60.71;82904.50;5032626;28;20080;-71
2023/06/04 03:49:59;;;;;;;1.88;1.35;;;;;;;-146.27;60.99;82902.50;5030482;28;20033;-70
2023/06/04 03:52:24;;;;;;;4.55;1.10;;;;;;;-146.27;58.28;82914.53;5030815;28;20025;-70
2023/06/04 03:54:49;;;;;;;1.48;1.38;;;;;;;-146.27;60.12;82906.50;5028441;28;20112;-70
2023/06/04 03:57:15;;;;;;;1.58;0.90;;;;;;;-146.27;60.62;82866.31;5026311;28;20021;-70
2023/06/04 03:59:40;;;;;;;2.72;1.17;;;;;;;-146.27;60.17;82902.50;5023740;28;20021;-71
2023/06/04 04:02:05;;;;;;;2.95;1.30;;;;;;;-146.27;61.99;82934.63;5030086;28;20041;-71
2023/06/04 04:04:32;;;;;;;5.00;1.70;;;;;;;-146.27;61.88;82914.53;5030307;28;20040;-70
2023/06/04 04:07:00;;;;;;;2.58;1.20;;;;;;;-146.27;60.43;82934.63;5031622;28;20040;-71
2023/06/04 04:09:25;;;;;;;2.13;1.30;;;;;;;-146.27;60.92;82906.50;5026549;28;20034;-70
2023/06/04 04:11:51;;;;;;;3.22;1.20;;;;;;;-146.27;62.15;82948.69;5017186;28;20033;-70
2023/06/04 04:14:16;;;;;;;2.47;1.30;;;;;;;-146.27;60.57;82910.53;5027283;28;20029;-70
2023/06/04 04:16:41;;;;;;;3.03;1.35;;;;;;;-146.27;62.48;82940.66;5014742;28;20421;-70
2023/06/04 04:19:07;;;;;;;5.05;1.33;;;;;;;-146.27;60.26;82888.44;5025299;28;20025;-72
2023/06/04 04:21:36;;;;;;;3.50;1.20;;;;;;;-146.27;60.56;82904.50;5029917;28;20033;-71
2023/06/04 04:24:02;;;;;;;2.40;1.25;;;;;;;-146.27;60.60;82830.16;5026769;28;20513;-71
2023/06/04 04:26:28;;;;;;;2.03;1.02;;;;;;;-146.27;59.86;82882.41;5022202;28;20083;-71
2023/06/04 04:28:57;;;;;;;3.55;1.45;;;;;;;-146.27;60.27;82842.22;5026278;28;20025;-71
2023/06/04 04:31:24;;;;;;;5.22;1.40;;;;;;;-146.27;60.87;82876.38;5018461;28;20033;-71
2023/06/04 04:33:51;;;;;;;3.60;1.40;;;;;;;-146.27;61.25;82828.16;5029353;28;20037;-70
2023/06/04 04:36:18;;;;;;;2.15;1.20;;;;;;;-146.27;60.34;82848.25;5019311;28;20512;-70
2023/06/04 04:38:44;;;;;;;6.68;1.23;;;;;;;-146.27;63.21;82846.25;5014006;28;20030;-71
2023/06/04 04:41:11;;;;;;;3.67;1.33;;;;;;;-146.27;63.29;82886.41;5022743;28;20029;-70
2023/06/04 04:43:39;;;;;;;5.10;1.23;;;;;;;-146.27;62.62;82914.53;5024722;28;20032;-70
2023/06/04 04:46:05;;;;;;;2.63;1.30;;;;;;;-146.27;63.08;82836.19;5023032;28;20022;-70
2023/06/04 04:48:30;;;;;;;1.75;1.10;;;;;;;-146.27;62.71;82816.09;5014619;28;20180;-70
2023/06/04 04:50:56;;;;;;;2.13;1.48;;;;;;;-146.27;64.04;82810.06;5030287;28;20056;-70
2023/06/04 04:53:21;;;;;;;3.53;1.38;;;;;;;-146.27;64.01;82783.97;5030006;28;20032;-70
2023/06/04 04:55:47;;;;;;;3.75;1.50;;;;;;;-146.27;63.21;82757.84;5028444;28;20029;-71
2023/06/04 04:58:13;;;;;;;3.15;1.25;;;;;;;-146.27;62.97;82789.97;5030179;28;20033;-70
2023/06/04 05:00:38;;;;;;;2.35;1.25;;;;;;;-146.27;62.95;82757.84;5025221;28;20102;-70
2023/06/04 05:03:04;;;;;;;6.30;1.38;;;;;;;-146.27;62.04;82717.66;5025044;28;20028;-70
2023/06/04 05:05:29;;;;;;;1.20;1.10;;;;;;;-146.27;62.89;82755.84;5027154;28;20504;-70
2023/06/04 05:07:54;;;;;;;5.38;1.50;;;;;;;-146.27;64.35;82802.03;5022163;28;20029;-70
2023/06/04 05:10:20;;;;;;;1.05;0.90;;;;;;;-146.27;64.23;82723.69;5030374;28;20041;-70
2023/06/04 05:12:59;;;;;;;1.88;1.10;;;;;;;-146.27;63.29;82665.44;5027087;28;20039;-70
2023/06/04 05:15:26;;;;;;;2.95;1.17;;;;;;;-146.27;63.46;82713.66;5022293;28;20025;-71
2023/06/04 05:17:56;;;;;;;2.35;1.40;;;;;;;-146.27;62.41;82713.66;5029581;28;20499;-70
2023/06/04 05:20:22;;;;;;;2.97;1.30;;;;;;;-146.27;61.66;82697.56;5026987;28;20112;-71
2023/06/04 05:22:48;;;;;;;2.67;1.05;;;;;;;-146.27;62.46;82721.69;5020829;28;20067;-71
2023/06/04 05:25:14;;;;;;;7.07;1.25;;;;;;;-146.27;62.40;82659.41;5028759;28;20100;-71
2023/06/04 05:27:39;;;;;;;3.20;1.08;;;;;;;-146.27;62.11;82757.84;5034329;28;20037;-70
2023/06/04 05:30:06;;;;;;;3.92;1.48;;;;;;;-146.27;62.43;82645.34;5033813;28;20454;-71
2023/06/04 05:32:32;;;;;;;5.05;1.60;;;;;;;-146.27;62.95;82637.31;5034987;28;20421;-70
2023/06/04 05:34:58;;;;;;;2.83;1.35;;;;;;;-146.27;61.98;82609.19;5034482;28;20032;-70
2023/06/04 05:37:26;;;;;;;1.58;1.13;;;;;;;-146.27;61.06;82593.09;5033733;28;20374;-71
2023/06/04 05:39:52;;;;;;;2.92;1.30;;;;;;;-146.27;63.08;82589.09;5033382;28;20021;-71
2023/06/04 05:42:18;;;;;;;7.22;1.95;;;;;;;-146.27;62.37;82591.09;5035519;28;20544;-71
2023/06/04 05:44:43;;;;;;;3.88;1.38;;;;;;;-146.27;61.34;82613.19;5030150;28;20029;-70
2023/06/04 05:47:08;;;;;;;1.88;1.15;;;;;;;-146.27;60.62;82524.81;5032883;28;20058;-71
2023/06/04 05:49:34;;;;;;;1.90;1.48;;;;;;;-146.27;60.62;82554.94;5032525;28;20051;-71
2023/06/04 05:52:00;;;;;;;2.75;1.45;;;;;;;-146.27;58.23;82530.84;5025621;28;20017;-73
2023/06/04 05:54:27;;;;;;;3.78;1.45;;;;;;;-146.27;57.96;82550.91;5022473;28;20279;-72
2023/06/04 05:56:52;;;;;;;3.38;1.20;;;;;;;-146.27;57.91;82560.97;5028994;28;20017;-73
2023/06/04 05:59:18;;;;;;;3.63;1.17;;;;;;;-146.27;55.77;82522.78;5026184;28;20073;-71
2023/06/04 06:01:43;;;;;;;1.98;1.30;;;;;;;-146.27;55.31;82520.78;5030187;28;20025;-72
2023/06/04 06:04:08;;;;;;;5.10;1.08;;;;;;;-146.27;56.54;82506.72;5020611;28;20477;-72
2023/06/04 06:06:35;;;;;;;3.40;0.90;;;;;;;-146.27;52.50;82500.69;5020260;28;20133;-71
2023/06/04 06:09:00;;;;;;;1.98;0.80;;;;;;;-146.27;50.11;82502.72;5024559;28;20053;-72
2023/06/04 06:11:26;;;;;;;4.47;2.10;;;;;;;-146.27;50.92;82386.19;5032024;28;20095;-72
2023/06/04 06:13:52;;;;;;;1.38;0.95;;;;;;;-146.27;51.15;82422.34;5031472;28;20076;-73
2023/06/04 06:16:18;;;;;;;2.95;0.82;;;;;;;-146.27;50.57;82464.53;5027948;28;20028;-72
2023/06/04 06:18:43;;;;;;;3.33;1.10;;;;;;;-146.27;48.96;82424.38;5030706;28;20534;-73
2023/06/04 06:21:09;;;;;;;2.53;1.00;;;;;;;-146.27;52.03;82402.25;5021169;28;20018;-73
2023/06/04 06:23:34;;;;;;;3.10;1.17;;;;;;;-146.27;48.54;82368.13;5028089;28;20029;-72
2023/06/04 06:26:01;;;;;;;2.85;0.90;;;;;;;-146.27;46.42;82360.09;5031345;28;20029;-72
2023/06/04 06:28:27;;;;;;;2.83;0.75;;;;;;;-146.27;45.54;82346.03;5028812;28;20463;-70
2023/06/04 06:30:52;;;;;;;3.15;1.00;;;;;;;-146.27;44.54;82337.97;5030231;28;20108;-70
2023/06/04 06:33:21;;;;;;;3.33;1.02;;;;;;;-146.27;44.12;82323.91;5029771;28;20030;-71
2023/06/04 06:35:47;;;;;;;6.10;0.93;;;;;;;-146.27;43.95;82309.88;5030637;28;20052;-71
2023/06/04 06:38:12;;;;;;;2.45;0.90;;;;;;;-146.27;43.61;82279.72;5018586;28;20040;-70
2023/06/04 06:40:38;;;;;;;4.10;1.02;;;;;;;-146.27;43.92;82263.66;5028528;28;20029;-71
2023/06/04 06:43:03;;;;;;;3.63;0.90;;;;;;;-146.27;43.93;82275.72;5023106;28;20021;-71
2023/06/04 06:45:28;;;;;;;3.55;0.95;;;;;;;-146.27;42.65;82221.47;5030328;28;20033;-69
2023/06/04 06:47:54;;;;;;;1.77;0.95;;;;;;;-146.27;42.93;82219.47;5032518;28;20032;-71
2023/06/04 06:50:19;;;;;;;4.43;1.35;;;;;;;-146.27;43.21;82225.50;5024167;28;20112;-70
2023/06/04 06:52:44;;;;;;;3.80;0.85;;;;;;;-146.27;43.06;82239.56;5030542;28;20034;-70
2023/06/04 06:55:10;;;;;;;3.20;1.23;;;;;;;-146.27;42.36;82225.50;5030231;28;20437;-70
2023/06/04 06:57:35;;;;;;;5.65;0.98;;;;;;;-146.27;42.89;82219.47;5029467;28;20029;-71
2023/06/04 07:00:01;;;;;;;3.13;0.90;;;;;;;-146.27;43.91;82189.34;5031045;28;20032;-70
2023/06/04 07:02:26;;;;;;;1.27;0.90;;;;;;;-146.27;42.20;82151.16;5031693;28;20063;-71
2023/06/04 07:04:52;;;;;;;3.65;1.10;;;;;;;-146.27;41.67;82145.16;5034901;28;20496;-71
2023/06/04 07:07:17;;;;;;;1.38;0.80;;;;;;;-146.27;43.69;82119.03;5035368;28;20485;-71
2023/06/04 07:09:43;;;;;;;1.15;0.88;;;;;;;-146.27;43.58;82082.88;5029932;28;20511;-71
2023/06/04 07:12:08;;;;;;;4.28;1.00;;;;;;;-146.27;41.48;82111.00;5027973;28;20477;-72
2023/06/04 07:14:33;;;;;;;3.30;0.85;;;;;;;-146.27;42.70;82066.81;5029832;28;20057;-71
2023/06/04 07:16:59;;;;;;;1.83;0.85;;;;;;;-146.27;43.04;82024.63;5030569;28;20064;-71
2023/06/04 07:19:24;;;;;;;2.08;0.80;;;;;;;-146.27;44.02;82032.66;5027045;28;20470;-69
2023/06/04 07:21:52;;;;;;;3.83;1.00;;;;;;;-146.27;43.29;82026.63;5019650;28;20474;-70
2023/06/04 07:24:17;;;;;;;2.88;0.98;;;;;;;-146.27;43.04;82022.63;5031643;28;20408;-71
2023/06/04 07:26:43;;;;;;;3.42;1.10;;;;;;;-146.27;44.28;81950.31;5031036;28;20112;-70
2023/06/04 07:29:08;;;;;;;2.80;1.13;;;;;;;-146.27;42.55;81988.47;5030569;28;20026;-70
2023/06/04 07:31:34;;;;;;;1.05;0.73;;;;;;;-146.27;42.90;81970.41;5030699;28;20033;-70
2023/06/04 07:33:59;;;;;;;5.53;0.93;;;;;;;-146.27;43.16;81861.94;5032216;28;20022;-68
2023/06/04 07:36:25;;;;;;;1.38;0.95;;;;;;;-146.27;43.40;81928.22;5027818;28;20037;-71
2023/06/04 07:38:50;;;;;;;2.15;0.90;;;;;;;-146.27;44.49;81886.03;5029716;28;20021;-70
2023/06/04 07:41:15;;;;;;;2.72;1.10;;;;;;;-146.27;43.43;81886.03;5028254;28;20033;-70
2023/06/04 07:43:42;;;;;;;3.85;1.20;;;;;;;-146.27;44.28;81878.00;5029943;28;20347;-70
2023/06/04 07:46:09;;;;;;;4.15;1.00;;;;;;;-146.27;44.20;81833.81;5030655;28;20029;-69
2023/06/04 07:48:34;;;;;;;3.45;0.98;;;;;;;-146.27;44.31;81865.94;5016098;28;20029;-70
2023/06/04 07:51:01;;;;;;;6.20;1.60;;;;;;;-146.27;45.43;81825.78;5026719;28;20028;-70
2023/06/04 07:53:28;;;;;;;5.88;1.10;;;;;;;-146.27;45.05;81791.63;5029387;28;20038;-70
2023/06/04 07:55:54;;;;;;;4.13;1.05;;;;;;;-146.27;45.46;81743.44;5031327;28;20029;-70
2023/06/04 07:58:20;;;;;;;4.75;1.38;;;;;;;-146.27;45.68;81753.47;5027198;28;20025;-71
2023/06/04 08:00:45;;;;;;;3.10;0.88;;;;;;;-146.27;43.39;81709.28;5027455;28;20029;-72
2023/06/04 08:03:11;;;;;;;2.58;1.10;;;;;;;-146.27;43.21;81733.38;5024898;28;20554;-71
2023/06/04 08:05:37;;;;;;;5.95;1.05;;;;;;;-146.27;43.60;81703.25;5020726;28;20448;-72
2023/06/04 08:08:03;;;;;;;7.53;1.42;;;;;;;-146.27;44.06;81681.16;5025342;28;20025;-72
2023/06/04 08:10:29;;;;;;;4.90;1.10;;;;;;;-146.27;42.58;81659.06;5026721;28;20056;-70
2023/06/04 08:12:54;;;;;;;4.13;0.95;;;;;;;-146.27;43.01;81661.09;5021060;28;20056;-71
2023/06/04 08:15:20;;;;;;;4.30;1.10;;;;;;;-146.27;42.44;81665.09;5025717;28;20498;-72
2023/06/04 08:17:45;;;;;;;2.20;1.00;;;;;;;-146.27;41.54;81628.94;5016363;28;20037;-72
2023/06/04 08:20:11;;;;;;;3.85;1.27;;;;;;;-146.27;42.19;81568.69;5020046;28;20010;-72
2023/06/04 08:22:36;;;;;;;3.08;1.15;;;;;;;-146.27;41.08;81626.94;5020237;28;20043;-71
2023/06/04 08:25:03;;;;;;;3.72;1.20;;;;;;;-146.27;42.13;81614.88;5026483;28;20054;-72
2023/06/04 08:27:28;;;;;;;5.35;1.40;;;;;;;-146.27;43.24;81546.59;5022138;28;20036;-71
2023/06/04 08:29:55;;;;;;;7.82;1.33;;;;;;;-146.27;42.51;81544.59;5029464;28;20033;-70
2023/06/04 08:32:20;;;;;;;1.75;0.82;;;;;;;-146.27;41.95;81542.59;5029320;28;20088;-71
2023/06/04 08:34:46;;;;;;;2.40;0.90;;;;;;;-146.27;40.27;81522.50;5021388;28;20057;-72
2023/06/04 08:37:11;;;;;;;6.03;1.50;;;;;;;-146.27;41.61;81532.53;5025871;28;20030;-70
2023/06/04 08:39:37;;;;;;;2.90;1.13;;;;;;;-146.27;41.75;81562.66;5028132;28;20025;-69
2023/06/04 08:42:19;;;;;;;4.15;1.33;;;;;;;-146.27;41.73;81492.38;5025466;28;20121;-69
2023/06/04 08:44:46;;;;;;;2.10;1.08;;;;;;;-146.27;41.83;81434.13;5029026;28;20041;-70
2023/06/04 08:47:14;;;;;;;4.40;1.00;;;;;;;-146.27;41.84;81430.13;5015968;28;20105;-69
2023/06/04 08:49:40;;;;;;;2.60;1.05;;;;;;;-146.27;41.94;81426.09;5028066;28;20025;-69
2023/06/04 08:52:06;;;;;;;2.75;1.17;;;;;;;-146.27;42.17;81383.94;5027146;28;20067;-69
2023/06/04 08:54:32;;;;;;;3.28;1.13;;;;;;;-146.27;42.24;81393.97;5025476;28;20037;-68
2023/06/04 08:56:58;;;;;;;1.52;1.15;;;;;;;-146.27;42.01;81377.91;5021425;28;20151;-69
2023/06/04 08:59:23;;;;;;;2.17;0.93;;;;;;;-146.27;42.19;81305.59;5023101;28;20030;-69
2023/06/04 09:01:53;;;;;;;14.00;1.63;;;;;;;-146.27;42.47;81287.53;5023428;28;20497;-69
2023/06/04 09:04:18;;;;;;;5.15;1.33;;;;;;;-146.27;42.25;81295.56;5024008;28;20516;-68
2023/06/04 09:06:44;;;;;;;3.35;1.27;;;;;;;-146.27;42.19;81255.41;5018902;28;20099;-68
2023/06/04 09:09:12;;;;;;;4.35;1.42;;;;;;;-146.27;41.73;81223.25;5027321;28;20685;-68
2023/06/04 09:11:48;;;;;;;6.30;1.13;;;;;;;-146.27;41.72;81207.19;5024189;28;20448;-69
2023/06/04 09:14:16;;;;;;;2.58;1.13;;;;;;;-146.27;41.30;81189.13;5023515;28;20083;-72
2023/06/04 09:16:53;;;;;;;6.35;1.33;;;;;;;-146.27;41.39;81146.97;5023408;28;20028;-73
2023/06/04 09:19:19;;;;;;;7.88;1.30;;;;;;;-146.27;41.56;81124.88;5025625;28;20025;-73
2023/06/04 09:21:54;;;;;;;4.25;1.23;;;;;;;-146.27;40.75;81120.84;5027706;28;20068;-73
2023/06/04 09:24:20;;;;;;;2.88;1.08;;;;;;;-146.27;40.99;81028.47;5028527;28;20045;-73
2023/06/04 09:26:46;;;;;;;4.05;1.30;;;;;;;-146.27;40.51;80986.31;5030490;28;20021;-72
2023/06/04 09:29:11;;;;;;;5.22;1.00;;;;;;;-146.27;38.85;81074.66;5029126;28;20384;-72
2023/06/04 09:31:38;;;;;;;7.75;1.10;;;;;;;-146.27;38.68;81100.75;5030519;28;20086;-73
2023/06/04 09:34:03;;;;;;;2.60;0.82;;;;;;;-146.27;38.59;81106.78;5027700;28;20083;-73
2023/06/04 09:36:33;;;;;;;3.92;1.00;;;;;;;-146.27;39.14;81110.81;5031199;28;20034;-72
2023/06/04 09:38:59;;;;;;;2.55;1.20;;;;;;;-146.27;39.28;81006.38;5031119;28;20512;-73
2023/06/04 09:41:26;;;;;;;3.20;1.00;;;;;;;-146.27;39.20;80970.25;5030320;28;20056;-71
2023/06/04 09:44:02;;;;;;;3.65;1.10;;;;;;;-146.27;39.06;80932.09;5029879;28;20087;-73
2023/06/04 09:46:28;;;;;;;4.70;1.25;;;;;;;-146.27;39.47;80916.03;5027936;28;20026;-73
2023/06/04 09:49:03;;;;;;;4.07;1.30;;;;;;;-146.27;39.02;80877.88;5028021;28;20028;-73
2023/06/04 09:51:30;;;;;;;6.75;1.10;;;;;;;-146.27;38.65;80855.78;5026223;28;20033;-72
2023/06/04 09:54:01;;;;;;;3.30;1.00;;;;;;;-146.27;39.02;80799.56;5027615;28;20033;-72
2023/06/04 09:56:27;;;;;;;3.78;1.13;;;;;;;-146.27;38.96;80733.28;5029976;28;20039;-72
2023/06/04 09:59:00;;;;;;;8.82;1.20;;;;;;;-146.27;37.16;80841.72;5033059;28;20056;-72
2023/06/04 10:01:26;;;;;;;;;;;;;;;-146.27;38.04;80837.72;5025380;28;20025;-69
2023/06/04 10:03:52;;;;;;;11.75;1.33;;;;;;;-146.27;37.97;80799.56;5024964;28;19940;-70
2023/06/04 10:06:21;;;;;;;7.40;1.15;;;;;;;-146.27;37.62;80797.53;5020152;28;20029;-69
2023/06/04 10:08:51;;;;;;;5.07;0.80;;;;;;;-146.27;37.73;80739.31;5020656;28;20122;-68
2023/06/04 10:11:25;;;;;;;1.98;0.95;;;;;;;-146.27;37.74;80665.03;5025588;28;20067;-69
2023/06/04 10:14:00;;;;;;;3.15;1.00;;;;;;;-146.27;36.76;80689.13;5033859;28;20037;-68
2023/06/04 10:16:26;;;;;;;4.53;1.00;;;;;;;-146.27;37.31;80733.28;5029546;28;20116;-70
2023/06/04 10:18:54;;;;;;;1.67;1.00;;;;;;;-146.27;36.99;80669.03;5028460;28;20140;-69
2023/06/04 10:21:20;;;;;;;2.38;1.17;;;;;;;-146.27;36.96;80640.94;5030932;28;20092;-70
2023/06/04 10:23:46;;;;;;;2.90;1.23;;;;;;;-146.27;36.79;80624.88;5036788;28;20028;-70
2023/06/04 10:26:15;;;;;;;2.70;0.80;;;;;;;-146.27;36.75;80524.47;5041647;28;20032;-69
2023/06/04 10:28:42;;;;;;;4.97;1.65;;;;;;;-146.27;36.60;80536.50;5031263;28;20093;-71
2023/06/04 10:31:09;;;;;;;8.90;1.20;;;;;;;-146.27;35.68;80546.56;5029831;28;20029;-67
2023/06/04 10:33:34;;;;;;;2.42;1.05;;;;;;;-146.27;36.13;80490.34;5026799;28;20038;-68
2023/06/04 10:36:16;;;;;;;2.78;1.00;;;;;;;-146.27;35.46;80500.38;5028978;28;20656;-70
2023/06/04 10:38:52;;;;;;;3.53;1.00;;;;;;;-146.27;35.79;80476.28;5029917;28;20037;-69
2023/06/04 10:41:21;;;;;;;5.30;1.10;;;;;;;-146.27;36.33;80472.25;5029698;28;20049;-67
2023/06/04 10:43:50;;;;;;;4.82;1.17;;;;;;;-146.27;35.10;80448.16;5031274;28;20053;-68
2023/06/04 10:46:17;;;;;;;2.90;1.02;;;;;;;-146.27;35.46;80536.50;5027897;28;20366;-69
2023/06/04 10:48:53;;;;;;;2.38;1.00;;;;;;;-146.27;36.34;80416.03;5029485;28;20079;-68
2023/06/04 10:51:34;;;;;;;1.50;0.80;;;;;;;-146.27;35.71;80408.00;5027597;28;20033;-69
2023/06/04 10:54:01;;;;;;;1.25;0.90;;;;;;;-146.27;35.92;80371.88;5022633;28;20540;-68
2023/06/04 10:56:37;;;;;;;5.32;1.40;;;;;;;-146.27;34.84;80408.00;5032667;28;20033;-68
2023/06/04 10:59:17;;;;;;;5.40;1.30;;;;;;;-146.27;37.09;80291.56;5029647;28;20029;-68
2023/06/04 11:01:42;;;;;;;5.05;1.40;;;;;;;-146.27;34.86;80289.56;5030467;28;20029;-71
2023/06/04 11:04:27;;;;;;;5.43;1.40;;;;;;;-146.27;34.64;80265.47;5021059;28;20327;-70
2023/06/04 11:07:08;;;;;;;2.17;1.00;;;;;;;-146.27;34.63;80195.19;5021779;28;20026;-71
2023/06/04 11:09:50;;;;;;;2.13;0.85;;;;;;;-146.27;34.95;80094.81;5021154;28;20456;-70
2023/06/04 11:12:15;;;;;;;6.10;1.40;;;;;;;-146.27;34.54;80120.91;5030374;28;20436;-71
2023/06/04 11:14:41;;;;;;;4.72;1.00;;;;;;;-146.27;34.63;80110.88;5030451;28;20033;-71